sensor_id;sensor_type;location;lat;lon;timestamp;temperature;humidity
4697;DHT22;2362;50.780;0.292;2022-11-20T00:01:24;4.80;99.90
4697;DHT22;2362;50.780;0.292;2022-11-20T00:03:52;4.80;99.90
4697;DHT22;2362;50.780;0.292;2022-11-20T00:06:19;4.80;99.90
4697;DHT22;2362;50.780;0.292;2022-11-20T00:08:46;4.90;99.90
4697;DHT22;2362;50.780;0.292;2022-11-20T00:11:15;4.90;99.90
4697;DHT22;2362;50.780;0.292;2022-11-20T00:13:42;4.90;99.90
4697;DHT22;2362;50.780;0.292;2022-11-20T00:16:10;4.90;99.90
4697;DHT22;2362;50.780;0.292;2022-11-20T00:18:37;4.90;99.90
4697;DHT22;2362;50.780;0.292;2022-11-20T00:21:07;5.00;99.90
4697;DHT22;2362;50.780;0.292;2022-11-20T00:23:34;5.00;99.90
4697;DHT22;2362;50.780;0.292;2022-11-20T00:26:05;5.00;99.90
4697;DHT22;2362;50.780;0.292;2022-11-20T00:28:32;5.10;99.90
4697;DHT22;2362;50.780;0.292;2022-11-20T00:31:16;5.00;99.90
4697;DHT22;2362;50.780;0.292;2022-11-20T00:33:43;5.00;99.90
4697;DHT22;2362;50.780;0.292;2022-11-20T00:36:17;5.00;99.90
4697;DHT22;2362;50.780;0.292;2022-11-20T00:38:43;5.10;99.90
4697;DHT22;2362;50.780;0.292;2022-11-20T00:41:11;5.20;99.90
4697;DHT22;2362;50.780;0.292;2022-11-20T00:43:38;5.20;99.90
4697;DHT22;2362;50.780;0.292;2022-11-20T00:46:07;5.30;99.90
4697;DHT22;2362;50.780;0.292;2022-11-20T00:48:33;5.30;99.90
4697;DHT22;2362;50.780;0.292;2022-11-20T00:50:59;5.20;99.90
4697;DHT22;2362;50.780;0.292;2022-11-20T00:53:25;5.20;99.90
4697;DHT22;2362;50.780;0.292;2022-11-20T00:56:05;5.30;99.90
4697;DHT22;2362;50.780;0.292;2022-11-20T00:58:36;5.30;99.90
4697;DHT22;2362;50.780;0.292;2022-11-20T01:01:03;5.30;99.90
4697;DHT22;2362;50.780;0.292;2022-11-20T01:03:36;5.30;99.90
4697;DHT22;2362;50.780;0.292;2022-11-20T01:06:07;5.30;99.90
4697;DHT22;2362;50.780;0.292;2022-11-20T01:08:35;5.40;99.90
4697;DHT22;2362;50.780;0.292;2022-11-20T01:11:03;5.40;99.90
4697;DHT22;2362;50.780;0.292;2022-11-20T01:13:30;5.40;99.90
4697;DHT22;2362;50.780;0.292;2022-11-20T01:18:32;5.50;99.90
4697;DHT22;2362;50.780;0.292;2022-11-20T01:21:03;5.60;99.90
4697;DHT22;2362;50.780;0.292;2022-11-20T01:23:32;5.60;99.90
4697;DHT22;2362;50.780;0.292;2022-11-20T01:26:00;5.60;99.90
4697;DHT22;2362;50.780;0.292;2022-11-20T01:28:27;5.50;99.90
4697;DHT22;2362;50.780;0.292;2022-11-20T01:30:53;5.50;99.90
4697;DHT22;2362;50.780;0.292;2022-11-20T01:33:19;5.60;99.90
4697;DHT22;2362;50.780;0.292;2022-11-20T01:35:45;5.60;99.90
4697;DHT22;2362;50.780;0.292;2022-11-20T01:38:10;5.70;99.90
4697;DHT22;2362;50.780;0.292;2022-11-20T01:40:36;5.70;99.90
4697;DHT22;2362;50.780;0.292;2022-11-20T01:43:14;5.70;99.90
4697;DHT22;2362;50.780;0.292;2022-11-20T01:49:00;5.80;99.90
4697;DHT22;2362;50.780;0.292;2022-11-20T01:51:48;5.70;99.90
4697;DHT22;2362;50.780;0.292;2022-11-20T01:54:18;5.70;99.90
4697;DHT22;2362;50.780;0.292;2022-11-20T01:56:47;5.80;99.90
4697;DHT22;2362;50.780;0.292;2022-11-20T01:59:16;5.70;99.90
4697;DHT22;2362;50.780;0.292;2022-11-20T02:01:43;5.70;99.90
4697;DHT22;2362;50.780;0.292;2022-11-20T02:04:10;5.70;99.90
4697;DHT22;2362;50.780;0.292;2022-11-20T02:06:52;5.80;99.90
4697;DHT22;2362;50.780;0.292;2022-11-20T02:09:19;5.90;99.90
4697;DHT22;2362;50.780;0.292;2022-11-20T02:11:44;5.90;99.90
4697;DHT22;2362;50.780;0.292;2022-11-20T02:14:10;6.00;99.90
4697;DHT22;2362;50.780;0.292;2022-11-20T02:16:40;6.00;99.90
4697;DHT22;2362;50.780;0.292;2022-11-20T02:19:24;6.10;99.90
4697;DHT22;2362;50.780;0.292;2022-11-20T02:22:14;6.10;99.90
4697;DHT22;2362;50.780;0.292;2022-11-20T02:24:42;6.20;99.90
4697;DHT22;2362;50.780;0.292;2022-11-20T02:27:13;6.20;99.90
4697;DHT22;2362;50.780;0.292;2022-11-20T02:32:26;6.20;99.90
4697;DHT22;2362;50.780;0.292;2022-11-20T02:34:52;6.30;99.90
4697;DHT22;2362;50.780;0.292;2022-11-20T02:37:19;6.40;99.90
4697;DHT22;2362;50.780;0.292;2022-11-20T02:39:47;6.40;99.90
4697;DHT22;2362;50.780;0.292;2022-11-20T02:42:13;6.50;99.90
4697;DHT22;2362;50.780;0.292;2022-11-20T02:44:39;6.60;99.90
4697;DHT22;2362;50.780;0.292;2022-11-20T02:47:05;6.90;99.90
4697;DHT22;2362;50.780;0.292;2022-11-20T02:49:31;7.20;99.90
4697;DHT22;2362;50.780;0.292;2022-11-20T02:51:57;7.50;99.90
4697;DHT22;2362;50.780;0.292;2022-11-20T02:54:23;7.70;99.90
4697;DHT22;2362;50.780;0.292;2022-11-20T02:56:49;7.80;99.90
4697;DHT22;2362;50.780;0.292;2022-11-20T02:59:15;7.80;99.90
4697;DHT22;2362;50.780;0.292;2022-11-20T03:01:41;7.80;99.90
4697;DHT22;2362;50.780;0.292;2022-11-20T03:04:32;7.90;99.90
4697;DHT22;2362;50.780;0.292;2022-11-20T03:06:58;7.90;99.90
4697;DHT22;2362;50.780;0.292;2022-11-20T03:09:24;8.00;99.90
4697;DHT22;2362;50.780;0.292;2022-11-20T03:11:50;8.00;99.90
4697;DHT22;2362;50.780;0.292;2022-11-20T03:14:16;8.00;99.90
4697;DHT22;2362;50.780;0.292;2022-11-20T03:16:42;8.10;99.90
4697;DHT22;2362;50.780;0.292;2022-11-20T03:19:07;8.10;99.90
4697;DHT22;2362;50.780;0.292;2022-11-20T03:21:33;8.10;99.90
4697;DHT22;2362;50.780;0.292;2022-11-20T03:24:00;8.10;99.90
4697;DHT22;2362;50.780;0.292;2022-11-20T03:26:32;8.10;99.90
4697;DHT22;2362;50.780;0.292;2022-11-20T03:29:00;8.10;99.90
4697;DHT22;2362;50.780;0.292;2022-11-20T03:31:34;8.10;99.90
4697;DHT22;2362;50.780;0.292;2022-11-20T03:34:01;8.20;99.90
4697;DHT22;2362;50.780;0.292;2022-11-20T03:36:27;8.20;99.90
4697;DHT22;2362;50.780;0.292;2022-11-20T03:38:54;8.20;99.90
4697;DHT22;2362;50.780;0.292;2022-11-20T03:41:23;8.20;99.90
4697;DHT22;2362;50.780;0.292;2022-11-20T03:44:21;8.20;99.90
4697;DHT22;2362;50.780;0.292;2022-11-20T03:46:47;8.30;99.90
4697;DHT22;2362;50.780;0.292;2022-11-20T03:49:13;8.50;99.90
4697;DHT22;2362;50.780;0.292;2022-11-20T03:51:39;8.70;99.90
4697;DHT22;2362;50.780;0.292;2022-11-20T03:54:08;8.80;99.90
4697;DHT22;2362;50.780;0.292;2022-11-20T03:56:37;8.80;99.90
4697;DHT22;2362;50.780;0.292;2022-11-20T03:59:03;8.80;99.90
4697;DHT22;2362;50.780;0.292;2022-11-20T04:01:34;8.90;99.90
4697;DHT22;2362;50.780;0.292;2022-11-20T04:04:00;8.80;99.90
4697;DHT22;2362;50.780;0.292;2022-11-20T04:06:35;8.80;99.90
4697;DHT22;2362;50.780;0.292;2022-11-20T04:09:01;8.80;99.90
4697;DHT22;2362;50.780;0.292;2022-11-20T04:11:32;8.80;99.90
4697;DHT22;2362;50.780;0.292;2022-11-20T04:14:00;8.90;99.90
4697;DHT22;2362;50.780;0.292;2022-11-20T04:16:31;8.90;99.90
4697;DHT22;2362;50.780;0.292;2022-11-20T04:18:59;8.80;99.90
4697;DHT22;2362;50.780;0.292;2022-11-20T04:21:25;8.80;99.90
4697;DHT22;2362;50.780;0.292;2022-11-20T04:23:52;8.90;99.90
4697;DHT22;2362;50.780;0.292;2022-11-20T04:26:18;8.90;99.90
4697;DHT22;2362;50.780;0.292;2022-11-20T04:28:44;8.90;99.90
4697;DHT22;2362;50.780;0.292;2022-11-20T04:31:16;8.80;99.90
4697;DHT22;2362;50.780;0.292;2022-11-20T04:33:42;8.70;99.90
4697;DHT22;2362;50.780;0.292;2022-11-20T04:38:33;8.70;99.90
4697;DHT22;2362;50.780;0.292;2022-11-20T04:41:01;8.70;99.90
4697;DHT22;2362;50.780;0.292;2022-11-20T04:43:27;8.70;99.90
4697;DHT22;2362;50.780;0.292;2022-11-20T04:45:54;8.70;99.90
4697;DHT22;2362;50.780;0.292;2022-11-20T04:48:20;8.70;99.90
4697;DHT22;2362;50.780;0.292;2022-11-20T04:50:46;8.70;99.90
4697;DHT22;2362;50.780;0.292;2022-11-20T04:53:12;8.80;99.90
4697;DHT22;2362;50.780;0.292;2022-11-20T04:55:38;8.90;99.90
4697;DHT22;2362;50.780;0.292;2022-11-20T04:58:03;9.00;99.90
4697;DHT22;2362;50.780;0.292;2022-11-20T05:00:29;9.00;99.90
4697;DHT22;2362;50.780;0.292;2022-11-20T05:02:55;9.10;99.90
4697;DHT22;2362;50.780;0.292;2022-11-20T05:05:21;9.20;99.90
4697;DHT22;2362;50.780;0.292;2022-11-20T05:07:46;9.20;99.90
4697;DHT22;2362;50.780;0.292;2022-11-20T05:10:12;9.30;99.90
4697;DHT22;2362;50.780;0.292;2022-11-20T05:12:38;9.30;99.90
4697;DHT22;2362;50.780;0.292;2022-11-20T05:15:04;9.50;99.90
4697;DHT22;2362;50.780;0.292;2022-11-20T05:17:30;9.60;99.90
4697;DHT22;2362;50.780;0.292;2022-11-20T05:19:59;9.50;99.90
4697;DHT22;2362;50.780;0.292;2022-11-20T05:22:25;9.40;99.90
4697;DHT22;2362;50.780;0.292;2022-11-20T05:24:50;9.30;99.90
4697;DHT22;2362;50.780;0.292;2022-11-20T05:27:16;9.30;99.90
4697;DHT22;2362;50.780;0.292;2022-11-20T05:29:42;9.40;99.90
4697;DHT22;2362;50.780;0.292;2022-11-20T05:32:08;9.40;99.90
4697;DHT22;2362;50.780;0.292;2022-11-20T05:34:35;9.40;99.90
4697;DHT22;2362;50.780;0.292;2022-11-20T05:37:27;9.40;99.90
4697;DHT22;2362;50.780;0.292;2022-11-20T05:39:53;9.40;99.90
4697;DHT22;2362;50.780;0.292;2022-11-20T05:42:19;9.40;99.90
4697;DHT22;2362;50.780;0.292;2022-11-20T05:45:01;9.40;99.90
4697;DHT22;2362;50.780;0.292;2022-11-20T05:47:33;9.40;99.90
4697;DHT22;2362;50.780;0.292;2022-11-20T05:49:59;9.40;99.90
4697;DHT22;2362;50.780;0.292;2022-11-20T05:52:28;9.40;99.90
4697;DHT22;2362;50.780;0.292;2022-11-20T05:54:54;9.40;99.90
4697;DHT22;2362;50.780;0.292;2022-11-20T05:57:20;9.40;99.90
4697;DHT22;2362;50.780;0.292;2022-11-20T05:59:46;9.40;99.90
4697;DHT22;2362;50.780;0.292;2022-11-20T06:02:12;9.40;99.90
4697;DHT22;2362;50.780;0.292;2022-11-20T06:04:38;9.40;99.90
4697;DHT22;2362;50.780;0.292;2022-11-20T06:07:05;9.40;99.90
4697;DHT22;2362;50.780;0.292;2022-11-20T06:09:31;9.40;99.90
4697;DHT22;2362;50.780;0.292;2022-11-20T06:11:56;9.40;99.90
4697;DHT22;2362;50.780;0.292;2022-11-20T06:14:22;9.50;99.90
4697;DHT22;2362;50.780;0.292;2022-11-20T06:16:48;9.50;99.90
4697;DHT22;2362;50.780;0.292;2022-11-20T06:19:15;9.50;99.90
4697;DHT22;2362;50.780;0.292;2022-11-20T06:21:41;9.50;99.90
4697;DHT22;2362;50.780;0.292;2022-11-20T06:24:08;9.40;99.90
4697;DHT22;2362;50.780;0.292;2022-11-20T06:26:34;9.50;99.90
4697;DHT22;2362;50.780;0.292;2022-11-20T06:29:00;9.50;99.90
4697;DHT22;2362;50.780;0.292;2022-11-20T06:31:26;9.50;99.90
4697;DHT22;2362;50.780;0.292;2022-11-20T06:33:52;9.50;99.90
4697;DHT22;2362;50.780;0.292;2022-11-20T06:36:19;9.60;99.90
4697;DHT22;2362;50.780;0.292;2022-11-20T06:38:46;9.60;99.90
4697;DHT22;2362;50.780;0.292;2022-11-20T06:41:14;9.60;99.90
4697;DHT22;2362;50.780;0.292;2022-11-20T06:43:41;9.60;99.90
4697;DHT22;2362;50.780;0.292;2022-11-20T06:46:07;9.60;99.90
4697;DHT22;2362;50.780;0.292;2022-11-20T06:48:34;9.60;99.90
4697;DHT22;2362;50.780;0.292;2022-11-20T06:51:04;9.70;99.90
4697;DHT22;2362;50.780;0.292;2022-11-20T06:53:30;9.70;99.90
4697;DHT22;2362;50.780;0.292;2022-11-20T06:55:56;9.70;99.90
4697;DHT22;2362;50.780;0.292;2022-11-20T06:58:29;9.70;99.90
4697;DHT22;2362;50.780;0.292;2022-11-20T07:01:00;9.60;99.90
4697;DHT22;2362;50.780;0.292;2022-11-20T07:03:26;9.60;99.90
4697;DHT22;2362;50.780;0.292;2022-11-20T07:05:57;9.60;99.90
4697;DHT22;2362;50.780;0.292;2022-11-20T07:08:24;9.60;99.90
4697;DHT22;2362;50.780;0.292;2022-11-20T07:10:50;9.60;99.90
4697;DHT22;2362;50.780;0.292;2022-11-20T07:13:16;9.70;99.90
4697;DHT22;2362;50.780;0.292;2022-11-20T07:15:41;9.60;99.90
4697;DHT22;2362;50.780;0.292;2022-11-20T07:18:07;9.60;99.90
4697;DHT22;2362;50.780;0.292;2022-11-20T07:20:33;9.70;99.90
4697;DHT22;2362;50.780;0.292;2022-11-20T07:22:59;9.70;99.90
4697;DHT22;2362;50.780;0.292;2022-11-20T07:25:26;9.70;99.90
4697;DHT22;2362;50.780;0.292;2022-11-20T07:27:52;9.70;99.90
4697;DHT22;2362;50.780;0.292;2022-11-20T07:30:18;9.80;99.90
4697;DHT22;2362;50.780;0.292;2022-11-20T07:32:51;9.90;99.90
4697;DHT22;2362;50.780;0.292;2022-11-20T07:35:17;10.00;99.90
4697;DHT22;2362;50.780;0.292;2022-11-20T07:37:43;10.00;99.90
4697;DHT22;2362;50.780;0.292;2022-11-20T07:40:12;10.00;99.90
4697;DHT22;2362;50.780;0.292;2022-11-20T07:42:37;10.10;99.90
4697;DHT22;2362;50.780;0.292;2022-11-20T07:45:03;10.10;99.90
4697;DHT22;2362;50.780;0.292;2022-11-20T07:47:35;10.10;99.90
4697;DHT22;2362;50.780;0.292;2022-11-20T07:50:02;10.20;99.90
4697;DHT22;2362;50.780;0.292;2022-11-20T07:52:29;10.20;99.90
4697;DHT22;2362;50.780;0.292;2022-11-20T07:54:55;10.20;99.90
4697;DHT22;2362;50.780;0.292;2022-11-20T07:57:20;10.30;99.90
4697;DHT22;2362;50.780;0.292;2022-11-20T07:59:46;10.30;99.90
4697;DHT22;2362;50.780;0.292;2022-11-20T08:02:12;10.40;99.90
4697;DHT22;2362;50.780;0.292;2022-11-20T08:04:38;10.50;99.90
4697;DHT22;2362;50.780;0.292;2022-11-20T08:07:03;10.50;99.90
4697;DHT22;2362;50.780;0.292;2022-11-20T08:09:29;10.50;99.90
4697;DHT22;2362;50.780;0.292;2022-11-20T08:11:55;10.50;99.90
4697;DHT22;2362;50.780;0.292;2022-11-20T08:14:39;10.50;99.90
4697;DHT22;2362;50.780;0.292;2022-11-20T08:17:05;10.50;99.90
4697;DHT22;2362;50.780;0.292;2022-11-20T08:19:31;10.50;99.90
4697;DHT22;2362;50.780;0.292;2022-11-20T08:21:57;10.50;99.90
4697;DHT22;2362;50.780;0.292;2022-11-20T08:24:23;10.60;99.90
4697;DHT22;2362;50.780;0.292;2022-11-20T08:26:48;10.60;99.90
4697;DHT22;2362;50.780;0.292;2022-11-20T08:29:14;10.60;99.90
4697;DHT22;2362;50.780;0.292;2022-11-20T08:31:41;10.60;99.90
4697;DHT22;2362;50.780;0.292;2022-11-20T08:34:07;10.60;99.90
4697;DHT22;2362;50.780;0.292;2022-11-20T08:36:33;10.50;99.90
4697;DHT22;2362;50.780;0.292;2022-11-20T08:39:00;10.50;99.90
4697;DHT22;2362;50.780;0.292;2022-11-20T08:41:26;10.50;99.90
4697;DHT22;2362;50.780;0.292;2022-11-20T08:44:03;10.60;99.90
4697;DHT22;2362;50.780;0.292;2022-11-20T08:46:40;10.60;99.90
4697;DHT22;2362;50.780;0.292;2022-11-20T08:49:08;10.80;99.90
4697;DHT22;2362;50.780;0.292;2022-11-20T08:51:35;10.90;99.90
4697;DHT22;2362;50.780;0.292;2022-11-20T08:54:01;10.90;99.90
4697;DHT22;2362;50.780;0.292;2022-11-20T08:56:27;10.80;99.90
4697;DHT22;2362;50.780;0.292;2022-11-20T08:58:54;10.60;99.90
4697;DHT22;2362;50.780;0.292;2022-11-20T09:01:21;10.50;99.90
4697;DHT22;2362;50.780;0.292;2022-11-20T09:03:47;10.40;99.90
4697;DHT22;2362;50.780;0.292;2022-11-20T09:06:13;10.20;99.90
4697;DHT22;2362;50.780;0.292;2022-11-20T09:08:39;10.20;99.90
4697;DHT22;2362;50.780;0.292;2022-11-20T09:11:06;10.20;99.90
4697;DHT22;2362;50.780;0.292;2022-11-20T09:13:34;10.20;99.90
4697;DHT22;2362;50.780;0.292;2022-11-20T09:16:25;10.20;99.90
4697;DHT22;2362;50.780;0.292;2022-11-20T09:18:52;10.10;99.90
4697;DHT22;2362;50.780;0.292;2022-11-20T09:21:18;10.10;99.90
4697;DHT22;2362;50.780;0.292;2022-11-20T09:23:44;10.10;99.90
4697;DHT22;2362;50.780;0.292;2022-11-20T09:26:14;10.10;99.90
4697;DHT22;2362;50.780;0.292;2022-11-20T09:28:40;10.10;99.90
4697;DHT22;2362;50.780;0.292;2022-11-20T09:31:07;10.00;99.90
4697;DHT22;2362;50.780;0.292;2022-11-20T09:33:34;10.00;99.90
4697;DHT22;2362;50.780;0.292;2022-11-20T09:36:00;10.00;99.90
4697;DHT22;2362;50.780;0.292;2022-11-20T09:38:26;10.00;99.90
4697;DHT22;2362;50.780;0.292;2022-11-20T09:41:06;10.10;99.90
4697;DHT22;2362;50.780;0.292;2022-11-20T09:43:53;10.00;99.90
4697;DHT22;2362;50.780;0.292;2022-11-20T09:46:29;10.00;99.90
4697;DHT22;2362;50.780;0.292;2022-11-20T09:52:00;10.10;99.90
4697;DHT22;2362;50.780;0.292;2022-11-20T09:54:35;10.10;99.90
4697;DHT22;2362;50.780;0.292;2022-11-20T09:57:09;10.10;99.90
4697;DHT22;2362;50.780;0.292;2022-11-20T09:59:51;10.00;99.90
4697;DHT22;2362;50.780;0.292;2022-11-20T10:05:17;10.00;99.90
4697;DHT22;2362;50.780;0.292;2022-11-20T10:18:49;10.20;99.90
4697;DHT22;2362;50.780;0.292;2022-11-20T10:29:38;10.30;99.90
4697;DHT22;2362;50.780;0.292;2022-11-20T10:32:19;10.30;99.90
4697;DHT22;2362;50.780;0.292;2022-11-20T10:38:02;10.10;99.90
4697;DHT22;2362;50.780;0.292;2022-11-20T10:40:38;10.00;99.90
4697;DHT22;2362;50.780;0.292;2022-11-20T10:43:12;10.00;99.90
4697;DHT22;2362;50.780;0.292;2022-11-20T10:48:23;10.00;99.90
4697;DHT22;2362;50.780;0.292;2022-11-20T10:54:03;10.10;99.90
4697;DHT22;2362;50.780;0.292;2022-11-20T10:56:42;10.20;99.90
4697;DHT22;2362;50.780;0.292;2022-11-20T11:01:41;10.30;99.90
4697;DHT22;2362;50.780;0.292;2022-11-20T11:06:48;10.30;99.90
4697;DHT22;2362;50.780;0.292;2022-11-20T11:09:24;10.30;99.90
4697;DHT22;2362;50.780;0.292;2022-11-20T11:11:55;10.40;99.90
4697;DHT22;2362;50.780;0.292;2022-11-20T11:14:21;10.40;99.90
4697;DHT22;2362;50.780;0.292;2022-11-20T11:16:57;10.50;99.90
4697;DHT22;2362;50.780;0.292;2022-11-20T11:19:23;10.60;99.90
4697;DHT22;2362;50.780;0.292;2022-11-20T11:21:55;10.80;99.90
4697;DHT22;2362;50.780;0.292;2022-11-20T11:24:26;10.80;99.90
4697;DHT22;2362;50.780;0.292;2022-11-20T11:27:00;10.80;99.90
4697;DHT22;2362;50.780;0.292;2022-11-20T11:29:30;10.80;99.90
4697;DHT22;2362;50.780;0.292;2022-11-20T11:32:23;10.80;99.90
4697;DHT22;2362;50.780;0.292;2022-11-20T11:35:03;10.80;99.90
4697;DHT22;2362;50.780;0.292;2022-11-20T11:38:12;10.80;99.90
4697;DHT22;2362;50.780;0.292;2022-11-20T11:40:43;10.70;99.90
4697;DHT22;2362;50.780;0.292;2022-11-20T11:43:33;10.70;99.90
4697;DHT22;2362;50.780;0.292;2022-11-20T11:46:30;10.70;99.90
4697;DHT22;2362;50.780;0.292;2022-11-20T11:51:28;10.60;99.90
4697;DHT22;2362;50.780;0.292;2022-11-20T11:53:58;10.50;99.90
4697;DHT22;2362;50.780;0.292;2022-11-20T11:56:25;10.50;99.90
4697;DHT22;2362;50.780;0.292;2022-11-20T11:58:52;10.50;99.90
4697;DHT22;2362;50.780;0.292;2022-11-20T12:09:48;10.70;99.90
4697;DHT22;2362;50.780;0.292;2022-11-20T12:12:18;10.80;99.90
4697;DHT22;2362;50.780;0.292;2022-11-20T12:14:47;10.80;99.90
4697;DHT22;2362;50.780;0.292;2022-11-20T12:17:15;10.80;99.90
4697;DHT22;2362;50.780;0.292;2022-11-20T12:19:43;10.80;99.90
4697;DHT22;2362;50.780;0.292;2022-11-20T12:27:39;10.80;99.90
4697;DHT22;2362;50.780;0.292;2022-11-20T12:30:18;10.80;99.90
4697;DHT22;2362;50.780;0.292;2022-11-20T12:41:26;10.80;99.90
4697;DHT22;2362;50.780;0.292;2022-11-20T12:53:12;10.90;99.90
4697;DHT22;2362;50.780;0.292;2022-11-20T12:56:00;10.90;99.90
4697;DHT22;2362;50.780;0.292;2022-11-20T13:01:25;10.90;99.90
4697;DHT22;2362;50.780;0.292;2022-11-20T13:07:13;11.20;99.90
4697;DHT22;2362;50.780;0.292;2022-11-20T13:09:45;11.30;99.90
4697;DHT22;2362;50.780;0.292;2022-11-20T13:12:23;11.30;99.90
4697;DHT22;2362;50.780;0.292;2022-11-20T13:15:05;11.20;99.90
4697;DHT22;2362;50.780;0.292;2022-11-20T13:20:18;11.20;99.90
4697;DHT22;2362;50.780;0.292;2022-11-20T13:25:21;11.30;99.90
4697;DHT22;2362;50.780;0.292;2022-11-20T13:27:48;11.20;99.90
4697;DHT22;2362;50.780;0.292;2022-11-20T13:30:18;11.30;99.90
4697;DHT22;2362;50.780;0.292;2022-11-20T13:32:57;11.30;99.90
4697;DHT22;2362;50.780;0.292;2022-11-20T13:35:30;11.20;99.90
4697;DHT22;2362;50.780;0.292;2022-11-20T13:38:12;11.20;99.90
4697;DHT22;2362;50.780;0.292;2022-11-20T13:40:59;11.20;99.90
4697;DHT22;2362;50.780;0.292;2022-11-20T13:43:49;11.20;99.90
4697;DHT22;2362;50.780;0.292;2022-11-20T13:46:15;11.20;99.90
4697;DHT22;2362;50.780;0.292;2022-11-20T13:48:45;11.20;99.90
4697;DHT22;2362;50.780;0.292;2022-11-20T13:51:34;11.10;99.90
4697;DHT22;2362;50.780;0.292;2022-11-20T13:56:46;11.20;99.90
4697;DHT22;2362;50.780;0.292;2022-11-20T13:59:36;11.20;99.90
4697;DHT22;2362;50.780;0.292;2022-11-20T14:02:11;11.20;99.90
4697;DHT22;2362;50.780;0.292;2022-11-20T14:04:44;11.20;99.90
4697;DHT22;2362;50.780;0.292;2022-11-20T14:07:11;11.20;99.90
4697;DHT22;2362;50.780;0.292;2022-11-20T14:09:37;11.20;99.90
4697;DHT22;2362;50.780;0.292;2022-11-20T14:12:13;11.10;99.90
4697;DHT22;2362;50.780;0.292;2022-11-20T14:14:48;11.00;99.90
4697;DHT22;2362;50.780;0.292;2022-11-20T14:17:33;11.00;99.90
4697;DHT22;2362;50.780;0.292;2022-11-20T14:20:04;11.00;99.90
4697;DHT22;2362;50.780;0.292;2022-11-20T14:22:30;10.90;99.90
4697;DHT22;2362;50.780;0.292;2022-11-20T14:27:43;10.90;99.90
4697;DHT22;2362;50.780;0.292;2022-11-20T14:30:22;10.90;99.90
4697;DHT22;2362;50.780;0.292;2022-11-20T14:32:49;10.80;99.90
4697;DHT22;2362;50.780;0.292;2022-11-20T14:35:23;10.70;99.90
4697;DHT22;2362;50.780;0.292;2022-11-20T14:37:49;10.60;99.90
4697;DHT22;2362;50.780;0.292;2022-11-20T14:42:48;10.50;99.90
4697;DHT22;2362;50.780;0.292;2022-11-20T14:45:15;10.40;99.90
4697;DHT22;2362;50.780;0.292;2022-11-20T14:47:43;10.40;99.90
4697;DHT22;2362;50.780;0.292;2022-11-20T14:50:19;10.50;99.90
4697;DHT22;2362;50.780;0.292;2022-11-20T14:52:57;10.60;99.90
4697;DHT22;2362;50.780;0.292;2022-11-20T14:55:35;10.70;99.90
4697;DHT22;2362;50.780;0.292;2022-11-20T14:58:03;10.80;99.90
4697;DHT22;2362;50.780;0.292;2022-11-20T15:00:31;10.90;99.90
4697;DHT22;2362;50.780;0.292;2022-11-20T15:02:57;10.80;99.90
4697;DHT22;2362;50.780;0.292;2022-11-20T15:05:26;10.70;99.90
4697;DHT22;2362;50.780;0.292;2022-11-20T15:08:10;10.60;99.90
4697;DHT22;2362;50.780;0.292;2022-11-20T15:10:36;10.60;99.90
4697;DHT22;2362;50.780;0.292;2022-11-20T15:13:13;10.60;99.90
4697;DHT22;2362;50.780;0.292;2022-11-20T15:15:46;10.60;99.90
4697;DHT22;2362;50.780;0.292;2022-11-20T15:18:25;10.60;99.90
4697;DHT22;2362;50.780;0.292;2022-11-20T15:20:57;10.50;99.90
4697;DHT22;2362;50.780;0.292;2022-11-20T15:23:23;10.50;99.90
4697;DHT22;2362;50.780;0.292;2022-11-20T15:25:49;10.60;99.90
4697;DHT22;2362;50.780;0.292;2022-11-20T15:28:30;10.60;99.90
4697;DHT22;2362;50.780;0.292;2022-11-20T15:30:57;10.60;99.90
4697;DHT22;2362;50.780;0.292;2022-11-20T15:33:23;10.50;99.90
4697;DHT22;2362;50.780;0.292;2022-11-20T15:35:49;10.50;99.90
4697;DHT22;2362;50.780;0.292;2022-11-20T15:38:15;10.40;99.90
4697;DHT22;2362;50.780;0.292;2022-11-20T15:40:41;10.50;99.90
4697;DHT22;2362;50.780;0.292;2022-11-20T15:43:07;10.50;99.90
4697;DHT22;2362;50.780;0.292;2022-11-20T15:48:26;10.70;99.90
4697;DHT22;2362;50.780;0.292;2022-11-20T15:50:58;10.70;99.90
4697;DHT22;2362;50.780;0.292;2022-11-20T15:53:25;10.60;99.90
4697;DHT22;2362;50.780;0.292;2022-11-20T15:55:50;10.60;99.90
4697;DHT22;2362;50.780;0.292;2022-11-20T15:58:16;10.40;99.90
4697;DHT22;2362;50.780;0.292;2022-11-20T16:00:43;10.40;99.90
4697;DHT22;2362;50.780;0.292;2022-11-20T16:03:12;10.40;99.90
4697;DHT22;2362;50.780;0.292;2022-11-20T16:05:39;10.40;99.90
4697;DHT22;2362;50.780;0.292;2022-11-20T16:08:05;10.30;99.90
4697;DHT22;2362;50.780;0.292;2022-11-20T16:10:31;10.20;99.90
4697;DHT22;2362;50.780;0.292;2022-11-20T16:12:56;10.20;99.90
4697;DHT22;2362;50.780;0.292;2022-11-20T16:15:41;10.20;99.90
4697;DHT22;2362;50.780;0.292;2022-11-20T16:18:21;10.10;99.90
4697;DHT22;2362;50.780;0.292;2022-11-20T16:20:50;10.00;99.90
4697;DHT22;2362;50.780;0.292;2022-11-20T16:23:16;10.00;99.90
4697;DHT22;2362;50.780;0.292;2022-11-20T16:25:43;10.00;99.90
4697;DHT22;2362;50.780;0.292;2022-11-20T16:28:10;10.00;99.90
4697;DHT22;2362;50.780;0.292;2022-11-20T16:30:36;10.00;99.90
4697;DHT22;2362;50.780;0.292;2022-11-20T16:33:03;10.10;99.90
4697;DHT22;2362;50.780;0.292;2022-11-20T16:35:30;10.10;99.90
4697;DHT22;2362;50.780;0.292;2022-11-20T16:37:57;10.10;99.90
4697;DHT22;2362;50.780;0.292;2022-11-20T16:40:23;10.20;99.90
4697;DHT22;2362;50.780;0.292;2022-11-20T16:42:50;10.30;99.90
4697;DHT22;2362;50.780;0.292;2022-11-20T16:45:16;10.30;99.90
4697;DHT22;2362;50.780;0.292;2022-11-20T16:47:44;10.30;99.90
4697;DHT22;2362;50.780;0.292;2022-11-20T16:50:10;10.40;99.90
4697;DHT22;2362;50.780;0.292;2022-11-20T16:52:36;10.40;99.90
4697;DHT22;2362;50.780;0.292;2022-11-20T16:55:02;10.60;99.90
4697;DHT22;2362;50.780;0.292;2022-11-20T16:57:29;10.70;99.90
4697;DHT22;2362;50.780;0.292;2022-11-20T16:59:55;10.70;99.90
4697;DHT22;2362;50.780;0.292;2022-11-20T17:02:21;10.70;99.90
4697;DHT22;2362;50.780;0.292;2022-11-20T17:04:47;10.70;99.90
4697;DHT22;2362;50.780;0.292;2022-11-20T17:07:13;10.70;99.90
4697;DHT22;2362;50.780;0.292;2022-11-20T17:09:39;10.60;99.90
4697;DHT22;2362;50.780;0.292;2022-11-20T17:12:05;10.60;99.90
4697;DHT22;2362;50.780;0.292;2022-11-20T17:14:32;10.40;99.90
4697;DHT22;2362;50.780;0.292;2022-11-20T17:16:57;10.30;99.90
4697;DHT22;2362;50.780;0.292;2022-11-20T17:19:23;10.30;99.90
4697;DHT22;2362;50.780;0.292;2022-11-20T17:21:49;10.20;99.90
4697;DHT22;2362;50.780;0.292;2022-11-20T17:24:15;10.20;99.90
4697;DHT22;2362;50.780;0.292;2022-11-20T17:26:42;10.20;99.90
4697;DHT22;2362;50.780;0.292;2022-11-20T17:29:13;10.10;99.90
4697;DHT22;2362;50.780;0.292;2022-11-20T17:31:40;10.00;99.90
4697;DHT22;2362;50.780;0.292;2022-11-20T17:34:08;9.90;99.90
4697;DHT22;2362;50.780;0.292;2022-11-20T17:36:35;9.80;99.90
4697;DHT22;2362;50.780;0.292;2022-11-20T17:39:01;9.80;99.90
4697;DHT22;2362;50.780;0.292;2022-11-20T17:41:28;9.70;99.90
4697;DHT22;2362;50.780;0.292;2022-11-20T17:43:56;9.70;99.90
4697;DHT22;2362;50.780;0.292;2022-11-20T17:46:25;9.70;99.90
4697;DHT22;2362;50.780;0.292;2022-11-20T17:48:51;9.80;99.90
4697;DHT22;2362;50.780;0.292;2022-11-20T17:51:25;9.90;99.90
4697;DHT22;2362;50.780;0.292;2022-11-20T17:53:57;9.90;99.90
4697;DHT22;2362;50.780;0.292;2022-11-20T17:56:23;10.00;99.90
4697;DHT22;2362;50.780;0.292;2022-11-20T17:59:10;10.00;99.90
4697;DHT22;2362;50.780;0.292;2022-11-20T18:01:36;10.00;99.90
4697;DHT22;2362;50.780;0.292;2022-11-20T18:04:02;10.10;99.90
4697;DHT22;2362;50.780;0.292;2022-11-20T18:06:30;10.00;99.90
4697;DHT22;2362;50.780;0.292;2022-11-20T18:09:00;10.00;99.90
4697;DHT22;2362;50.780;0.292;2022-11-20T18:11:32;9.90;99.90